createdAt,value
2019-05-18T00:15:37.834Z,11.30
2019-05-18T00:27:16.998Z,14.60
2019-05-18T00:29:39.118Z,12.65
2019-05-18T00:31:59.409Z,12.65
2019-05-18T00:34:19.397Z,13.98
2019-05-18T00:36:39.267Z,13.03
2019-05-18T00:38:59.134Z,11.33
2019-05-18T00:41:19.282Z,13.38
2019-05-18T00:43:39.570Z,11.93
2019-05-18T00:45:59.450Z,13.20
2019-05-18T00:53:00.125Z,12.90
2019-05-18T00:55:20.567Z,12.90
2019-05-18T01:02:20.028Z,12.20
2019-05-18T01:04:39.858Z,12.68
2019-05-18T01:07:00.150Z,12.70
2019-05-18T01:09:20.142Z,10.90
2019-05-18T01:11:40.095Z,13.05
2019-05-18T01:14:00.420Z,13.85
2019-05-18T01:16:20.504Z,13.30
2019-05-18T01:18:40.423Z,13.00
2019-05-18T01:21:00.229Z,14.40
2019-05-18T01:29:04.222Z,14.65
2019-05-18T01:36:04.837Z,13.03
2019-05-18T01:38:24.617Z,13.15
2019-05-18T01:40:44.513Z,14.70
2019-05-18T01:43:04.698Z,12.43
2019-05-18T01:45:25.058Z,11.18
2019-05-18T01:47:44.512Z,11.88
2019-05-18T01:50:05.946Z,11.85
2019-05-18T01:52:26.805Z,13.08
2019-05-18T01:54:47.081Z,12.20
2019-05-18T01:57:06.684Z,13.03
2019-05-18T01:59:26.748Z,13.13
2019-05-18T02:01:46.729Z,12.50
2019-05-18T02:04:06.750Z,14.75
2019-05-18T02:06:26.682Z,12.85
2019-05-18T02:08:46.778Z,12.15
2019-05-18T02:11:07.182Z,14.15
2019-05-18T02:13:27.270Z,14.25
2019-05-18T02:15:47.294Z,13.53
2019-05-18T02:18:07.427Z,13.75
2019-05-18T02:20:27.470Z,14.93
2019-05-18T02:22:47.420Z,14.13
2019-05-18T02:25:07.721Z,14.80
2019-05-18T02:27:27.654Z,14.23
2019-05-18T02:29:47.647Z,14.63
2019-05-18T02:32:07.648Z,14.87
2019-05-18T02:34:27.580Z,13.22
2019-05-18T02:36:47.238Z,11.73
2019-05-18T02:39:07.955Z,14.25
2019-05-18T02:41:28.171Z,14.20
2019-05-18T02:43:48.223Z,14.43
2019-05-18T02:46:08.084Z,12.55
2019-05-18T02:48:28.117Z,12.30
2019-05-18T02:50:47.850Z,14.03
2019-05-18T02:54:11.156Z,13.70
2019-05-18T02:56:31.577Z,15.10
2019-05-18T02:58:51.895Z,14.23
2019-05-18T03:01:11.858Z,13.68
2019-05-18T03:03:31.551Z,14.70
2019-05-18T03:10:31.537Z,11.00
2019-05-18T03:12:51.314Z,12.95
2019-05-18T03:19:51.108Z,14.60
2019-05-18T03:22:10.804Z,13.35
2019-05-18T03:24:30.451Z,13.48
2019-05-18T03:26:50.641Z,12.43
2019-05-18T03:29:10.647Z,13.00
2019-05-18T03:33:50.284Z,13.62
2019-05-18T03:36:10.132Z,13.83
2019-05-18T03:38:29.831Z,12.43
2019-05-18T03:40:49.730Z,12.20
2019-05-18T03:43:09.670Z,12.95
2019-05-18T03:45:29.743Z,12.68
2019-05-18T03:47:49.483Z,13.22
2019-05-18T03:50:09.798Z,11.57
2019-05-18T03:52:29.626Z,12.88
2019-05-18T03:54:49.724Z,12.85
2019-05-18T03:57:09.365Z,12.03
2019-05-18T03:59:29.112Z,11.97
2019-05-18T04:01:49.087Z,12.78
2019-05-18T04:04:09.352Z,12.85
2019-05-18T04:06:29.979Z,12.35
2019-05-18T04:08:50.396Z,13.25
2019-05-18T04:11:11.214Z,12.00
2019-05-18T04:13:31.240Z,10.80
2019-05-18T04:15:51.213Z,12.82
2019-05-18T04:18:11.382Z,13.60
2019-05-18T04:20:31.590Z,12.50
2019-05-18T04:22:51.566Z,12.18
2019-05-18T04:25:11.411Z,13.15
2019-05-18T04:27:58.784Z,13.65
2019-05-18T04:30:19.021Z,14.23
2019-05-18T04:32:39.153Z,14.83
2019-05-18T04:34:58.986Z,14.05
2019-05-18T04:37:18.807Z,13.45
2019-05-18T04:39:38.755Z,12.73
2019-05-18T04:41:58.651Z,15.72
2019-05-18T04:44:20.717Z,19.12
2019-05-18T04:46:41.374Z,19.35
2019-05-18T04:49:01.408Z,17.85
2019-05-18T04:51:21.199Z,16.27
2019-05-18T04:53:41.026Z,16.35
2019-05-18T04:56:00.848Z,16.62
2019-05-18T04:58:20.859Z,16.75
2019-05-18T05:00:41.310Z,19.75
2019-05-18T05:03:01.366Z,18.02
2019-05-18T05:05:21.399Z,15.48
2019-05-18T05:07:41.454Z,17.07
2019-05-18T05:10:05.095Z,16.30
2019-05-18T05:12:25.118Z,20.17
2019-05-18T05:14:45.715Z,19.48
2019-05-18T05:17:05.987Z,19.40
2019-05-18T05:19:26.282Z,24.98
2019-05-18T05:21:46.195Z,21.15
2019-05-18T05:24:06.038Z,21.35
2019-05-18T05:26:26.290Z,20.90
2019-05-18T05:31:06.599Z,20.15
2019-05-18T05:33:26.864Z,25.92
2019-05-18T05:35:46.550Z,23.60
2019-05-18T05:38:06.627Z,21.60
2019-05-18T05:40:26.851Z,19.65
2019-05-18T05:42:46.776Z,23.77
2019-05-18T05:45:07.940Z,26.17
2019-05-18T05:47:28.107Z,27.32
2019-05-18T05:49:49.438Z,27.00
2019-05-18T05:52:09.586Z,29.52
2019-05-18T05:54:29.498Z,28.83
2019-05-18T05:56:49.758Z,28.05
2019-05-18T05:59:09.833Z,31.07
2019-05-18T06:01:29.563Z,29.32
2019-05-18T06:03:49.494Z,29.40
2019-05-18T06:06:09.311Z,28.27
2019-05-18T06:08:29.036Z,31.20
2019-05-18T06:10:49.114Z,30.40
2019-05-18T06:13:12.141Z,31.05
2019-05-18T06:15:31.887Z,33.50
2019-05-18T06:17:52.218Z,31.35
2019-05-18T06:20:12.127Z,31.23
2019-05-18T06:22:32.267Z,32.60
2019-05-18T06:24:51.942Z,31.20
2019-05-18T06:27:13.359Z,31.05
2019-05-18T06:29:33.195Z,32.50
2019-05-18T06:31:52.788Z,28.75
2019-05-18T06:34:12.913Z,30.72
2019-05-18T06:36:33.050Z,31.55
2019-05-18T06:38:53.056Z,30.72
2019-05-18T06:41:13.451Z,29.95
2019-05-18T06:43:33.401Z,31.40
2019-05-18T06:45:54.280Z,30.95
2019-05-18T06:48:14.175Z,30.48
2019-05-18T06:50:34.171Z,29.98
2019-05-18T06:52:54.557Z,28.25
2019-05-18T15:46:00.706Z,4.30
2019-05-18T15:47:29.562Z,6.65
2019-05-18T15:47:50.821Z,5.65
2019-05-18T15:48:12.416Z,5.10
2019-05-18T15:48:33.710Z,4.90
2019-05-18T15:48:56.330Z,11.88
2019-05-18T15:49:18.123Z,5.12
2019-05-18T15:51:16.208Z,3.77
2019-05-18T15:51:37.482Z,3.50
2019-05-18T15:51:58.970Z,3.80
2019-05-18T15:52:20.245Z,3.62
2019-05-18T15:52:41.531Z,3.58
2019-05-18T15:53:02.878Z,3.10
2019-05-18T15:53:24.193Z,3.67
2019-05-18T15:53:45.541Z,3.55
2019-05-18T15:54:06.865Z,3.75
2019-05-18T15:54:28.126Z,3.12
2019-05-18T15:54:49.637Z,3.45
2019-05-18T15:55:11.225Z,3.37
2019-05-18T15:55:32.619Z,2.92
2019-05-18T15:56:05.213Z,3.37
2019-05-18T15:56:17.085Z,3.30
2019-05-18T15:56:38.318Z,3.50
2019-05-18T15:56:59.575Z,3.40
2019-05-18T15:57:20.826Z,3.10
2019-05-18T15:57:42.073Z,3.50
2019-05-18T15:58:03.326Z,3.37
2019-05-18T15:58:24.581Z,3.17
2019-05-18T15:58:45.849Z,3.40
2019-05-18T15:59:07.091Z,3.67
2019-05-18T15:59:28.353Z,3.62
2019-05-18T15:59:49.747Z,3.40
2019-05-18T16:00:11.613Z,3.55
2019-05-18T16:00:32.849Z,3.20
2019-05-18T16:00:54.369Z,3.30
2019-05-18T16:01:15.626Z,3.42
2019-05-18T16:03:28.677Z,3.22
2019-05-18T16:05:30.258Z,3.12
2019-05-18T16:07:31.534Z,2.92
2019-05-18T16:09:32.835Z,3.33
2019-05-18T16:11:34.097Z,3.37
2019-05-18T16:13:35.415Z,3.00
2019-05-18T16:15:36.690Z,3.00
2019-05-18T16:17:39.994Z,3.27
2019-05-18T16:19:41.150Z,2.70
2019-05-18T16:21:42.406Z,3.15
2019-05-18T16:25:44.817Z,3.12
2019-05-18T16:27:46.196Z,2.77
2019-05-18T16:29:47.626Z,2.90
2019-05-18T16:31:49.070Z,2.75
2019-05-18T16:33:50.358Z,3.40
2019-05-18T16:35:51.907Z,3.42
2019-05-18T16:37:53.275Z,2.72
2019-05-18T16:39:54.699Z,2.75
2019-05-18T16:41:56.221Z,3.02
2019-05-18T16:43:57.552Z,2.40
2019-05-18T16:45:58.938Z,2.72
2019-05-18T16:48:00.217Z,2.47
2019-05-18T16:52:03.039Z,2.25
2019-05-18T16:54:04.688Z,2.45
2019-05-18T16:56:05.969Z,2.47
2019-05-18T17:00:09.710Z,2.42
2019-05-18T17:02:10.987Z,2.80
2019-05-18T17:04:12.361Z,2.80
2019-05-18T17:08:16.687Z,2.70
2019-05-18T17:12:19.208Z,3.52
2019-05-18T17:14:20.487Z,2.60
2019-05-18T17:16:22.779Z,2.98
2019-05-18T17:18:24.177Z,2.42
2019-05-18T17:22:27.908Z,2.42
2019-05-18T17:24:29.198Z,2.22
2019-05-18T17:28:31.709Z,2.00
2019-05-18T17:32:34.141Z,2.58
2019-05-18T17:36:36.634Z,2.27
2019-05-18T17:40:39.177Z,2.37
2019-05-18T17:42:40.740Z,2.83
2019-05-18T17:44:42.048Z,2.33
2019-05-18T17:48:44.502Z,2.83
2019-05-18T17:50:46.106Z,2.67
2019-05-18T17:54:48.726Z,2.98
2019-05-18T17:58:51.307Z,3.08
2019-05-18T18:02:53.867Z,4.92
2019-05-18T18:04:55.217Z,3.45
2019-05-18T18:08:57.630Z,4.33
2019-05-18T18:10:58.937Z,4.05
2019-05-18T18:13:00.195Z,4.75
2019-05-18T18:15:01.766Z,4.70
2019-05-18T18:17:03.880Z,3.45
2019-05-18T18:21:06.511Z,4.60
2019-05-18T18:23:07.809Z,4.87
2019-05-18T18:25:09.477Z,4.75
2019-05-18T18:27:24.203Z,3.45
2019-05-18T18:29:14.054Z,4.10
2019-05-18T18:31:15.446Z,5.10
2019-05-18T18:35:17.874Z,4.95
2019-05-18T18:37:19.501Z,5.08
2019-05-18T18:39:21.848Z,4.20
2019-05-18T18:43:24.475Z,4.50
2019-05-18T18:47:26.921Z,4.35
2019-05-18T18:49:28.203Z,4.90
2019-05-18T18:51:29.498Z,4.40
2019-05-18T18:53:31.333Z,4.15
2019-05-18T18:55:32.607Z,4.03
2019-05-18T18:57:41.126Z,3.83
2019-05-18T18:59:37.248Z,4.20
2019-05-18T19:01:38.537Z,4.33
2019-05-18T19:03:39.885Z,4.15
2019-05-18T19:07:42.570Z,4.70
2019-05-18T19:09:43.960Z,3.92
2019-05-18T19:13:46.421Z,4.65
2019-05-18T19:15:47.700Z,4.65
2019-05-18T19:17:48.978Z,3.30
2019-05-18T19:19:50.249Z,3.85
2019-05-18T19:21:51.534Z,5.22
2019-05-18T19:23:52.817Z,4.17
2019-05-18T19:25:54.194Z,4.45
2019-05-18T19:27:56.474Z,4.37
2019-05-18T19:29:57.871Z,4.42
2019-05-18T19:31:59.255Z,4.17
2019-05-18T19:34:00.518Z,4.58
2019-05-18T19:36:01.806Z,4.70
2019-05-18T19:38:03.269Z,4.37
2019-05-18T19:40:05.548Z,4.50
2019-05-18T19:42:07.082Z,4.62
2019-05-18T19:46:09.503Z,4.97
2019-05-18T19:48:10.775Z,5.42
2019-05-18T19:50:14.339Z,5.08
2019-05-18T19:52:15.719Z,4.30
2019-05-18T19:54:16.982Z,4.80
2019-05-18T19:56:18.413Z,5.37
2019-05-18T20:00:21.728Z,4.70
2019-05-18T20:02:23.081Z,5.33
2019-05-18T20:04:24.344Z,5.30
2019-05-18T20:06:25.686Z,5.37
2019-05-18T20:08:26.954Z,5.15
2019-05-18T20:10:28.229Z,5.55
2019-05-18T20:12:29.539Z,5.55
2019-05-18T20:14:30.807Z,5.10
2019-05-18T20:16:32.081Z,5.58
2019-05-18T20:18:33.457Z,5.37
2019-05-18T20:20:35.151Z,5.58
2019-05-18T20:24:37.977Z,5.75
2019-05-18T20:26:39.245Z,5.30
2019-05-18T20:28:40.551Z,5.15
2019-05-18T20:30:42.172Z,5.20
2019-05-18T20:32:43.546Z,5.65
2019-05-18T20:34:44.818Z,5.47
2019-05-18T20:36:46.134Z,5.90
2019-05-18T20:38:47.508Z,5.30
2019-05-18T20:40:48.761Z,5.60
2019-05-18T20:42:50.042Z,5.47
2019-05-18T20:44:52.408Z,4.90
2019-05-18T20:46:53.934Z,5.30
2019-05-18T20:50:56.854Z,5.72
2019-05-18T20:54:59.479Z,5.58
2019-05-18T20:57:00.734Z,4.60
2019-05-18T20:59:02.015Z,4.83
2019-05-18T21:01:03.274Z,5.12
2019-05-18T21:05:06.189Z,5.15
2019-05-18T21:07:07.457Z,5.03
2019-05-18T21:09:08.806Z,5.15
2019-05-18T21:11:10.061Z,5.25
2019-05-18T21:13:11.360Z,5.33
2019-05-18T21:15:13.137Z,5.40
2019-05-18T21:17:14.855Z,5.25
2019-05-18T21:21:17.345Z,5.35
2019-05-18T21:23:18.973Z,4.90
2019-05-18T21:27:21.473Z,5.37
2019-05-18T21:29:22.757Z,5.08
2019-05-18T21:31:25.023Z,4.92
2019-05-18T21:33:26.291Z,5.35
2019-05-18T21:35:27.545Z,5.00
2019-05-18T21:37:28.911Z,4.58
2019-05-18T21:39:30.227Z,5.37
2019-05-18T21:41:33.683Z,5.22
2019-05-18T21:43:34.991Z,5.15
2019-05-18T21:45:36.261Z,5.42
2019-05-18T21:47:37.546Z,5.35
2019-05-18T21:49:38.822Z,5.22
2019-05-18T21:51:40.207Z,5.22
2019-05-18T21:53:41.487Z,5.15
2019-05-18T21:55:43.742Z,5.53
2019-05-18T21:57:45.018Z,5.42
2019-05-18T21:59:46.298Z,5.17
2019-05-18T22:01:47.557Z,5.53
2019-05-18T22:03:48.829Z,5.50
2019-05-18T22:05:50.169Z,5.15
2019-05-18T22:07:52.546Z,5.35
2019-05-18T22:09:53.991Z,5.50
2019-05-18T22:13:56.570Z,6.20
2019-05-18T22:15:57.826Z,5.65
2019-05-18T22:18:02.399Z,5.92
2019-05-18T22:20:04.594Z,5.20
2019-05-18T22:22:05.929Z,5.83
2019-05-18T22:24:07.201Z,5.75
2019-05-18T22:26:08.825Z,6.03
2019-05-18T22:30:11.594Z,5.70
2019-05-18T22:32:12.867Z,6.35
2019-05-18T22:34:14.146Z,5.92
2019-05-18T22:36:16.431Z,5.67
2019-05-18T22:38:18.150Z,5.62
2019-05-18T22:42:22.118Z,6.43
2019-05-18T22:44:23.397Z,6.28
2019-05-18T22:46:24.774Z,5.97
2019-05-18T22:48:40.378Z,6.55
2019-05-18T22:50:29.639Z,6.83
2019-05-18T22:54:32.115Z,7.07
2019-05-18T22:56:33.375Z,6.33
2019-05-18T22:58:34.634Z,7.12
2019-05-18T23:00:35.910Z,6.90
2019-05-18T23:02:37.165Z,6.92
2019-05-18T23:04:38.436Z,6.85
2019-05-18T23:06:39.702Z,6.37
2019-05-18T23:08:40.964Z,5.95
2019-05-18T23:10:42.240Z,6.60
2019-05-18T23:12:43.602Z,7.60
2019-05-18T23:14:44.869Z,8.20
2019-05-18T23:16:46.130Z,7.72
2019-05-18T23:18:56.337Z,7.15
2019-05-18T23:20:50.565Z,7.60
2019-05-18T23:22:51.836Z,7.40
2019-05-18T23:24:53.101Z,6.97
2019-05-18T23:26:54.362Z,7.65
2019-05-18T23:28:55.681Z,7.55
2019-05-18T23:30:56.962Z,6.62
2019-05-18T23:32:58.226Z,7.53
2019-05-18T23:34:59.575Z,6.83
2019-05-18T23:37:00.855Z,7.45
2019-05-18T23:39:04.428Z,8.08
2019-05-18T23:41:05.705Z,7.05
2019-05-18T23:43:07.225Z,7.33
2019-05-18T23:47:09.949Z,4.97
2019-05-18T23:49:11.426Z,6.92
2019-05-18T23:51:12.733Z,6.95
2019-05-18T23:53:13.995Z,6.87
2019-05-18T23:55:16.269Z,6.47
2019-05-18T23:57:17.811Z,7.33
2019-05-18T23:59:19.102Z,7.50
